KDNL

Daniel Field Airport

Augusta, Georgia, USA
METAR KDNL 230953Z AUTO 11003KT 9SM CLR 17/16 A3041 RMK AO2 SLP293 T01670156
Observed Flight Rules
Feb-23 @ 09:53 UTC (34 minutes ago) Visual Flight Rules
Wind Visibility Clouds
110° at 3 knots 9 miles
  • Clear skies
Temperatures Readings
Current 17°C / 63°F
Dewpoint 16°C / 61°F
Humidity 94%
Altimeter 30.41" Hg
Pressure 1029.3 hPa
Elevation 130
METAR KDNL 230953Z AUTO 11003KT 9SM CLR 17/16 A3041 RMK AO2 SLP293 T01670156
Observed Flight Rules
Feb-23 @ 09:53 UTC
(34 minutes ago)
VFR
Wind Visibility
110° at 3 knots 9 miles
Clouds
  • Clear skies
Temperature Dewpoint
17°C / 63°F 16°C / 61°F
Humidity Altimeter Pressure
94% 30.41" Hg 1029.3 hPa